sensor_id;sensor_type;location;lat;lon;timestamp;P1;durP1;ratioP1;P2;durP2;ratioP2
71513;SDS011;59335;46.652;21.272;2023-05-07T00:02:05;7.32;;;4.25;;
71513;SDS011;59335;46.652;21.272;2023-05-07T00:05:09;6.80;;;3.80;;
71513;SDS011;59335;46.652;21.272;2023-05-07T00:08:12;7.22;;;4.07;;
71513;SDS011;59335;46.652;21.272;2023-05-07T00:11:15;6.60;;;4.10;;
71513;SDS011;59335;46.652;21.272;2023-05-07T00:14:18;6.45;;;3.92;;
71513;SDS011;59335;46.652;21.272;2023-05-07T00:17:20;6.13;;;4.03;;
71513;SDS011;59335;46.652;21.272;2023-05-07T00:20:23;6.63;;;3.90;;
71513;SDS011;59335;46.652;21.272;2023-05-07T00:23:26;7.15;;;4.03;;
71513;SDS011;59335;46.652;21.272;2023-05-07T00:26:29;6.82;;;4.20;;
71513;SDS011;59335;46.652;21.272;2023-05-07T00:29:32;6.22;;;4.10;;
71513;SDS011;59335;46.652;21.272;2023-05-07T00:32:35;7.13;;;4.13;;
71513;SDS011;59335;46.652;21.272;2023-05-07T00:35:38;6.03;;;3.73;;
71513;SDS011;59335;46.652;21.272;2023-05-07T00:38:41;6.60;;;4.03;;
71513;SDS011;59335;46.652;21.272;2023-05-07T00:41:44;6.82;;;4.10;;
71513;SDS011;59335;46.652;21.272;2023-05-07T00:44:47;7.18;;;3.95;;
71513;SDS011;59335;46.652;21.272;2023-05-07T00:47:49;6.70;;;4.20;;
71513;SDS011;59335;46.652;21.272;2023-05-07T00:50:52;6.73;;;3.97;;
71513;SDS011;59335;46.652;21.272;2023-05-07T00:53:56;6.35;;;3.97;;
71513;SDS011;59335;46.652;21.272;2023-05-07T00:56:58;6.90;;;4.10;;
71513;SDS011;59335;46.652;21.272;2023-05-07T01:00:03;6.43;;;3.90;;
71513;SDS011;59335;46.652;21.272;2023-05-07T01:03:06;6.18;;;3.80;;
71513;SDS011;59335;46.652;21.272;2023-05-07T01:06:10;9.07;;;4.17;;
71513;SDS011;59335;46.652;21.272;2023-05-07T01:09:15;5.88;;;3.70;;
71513;SDS011;59335;46.652;21.272;2023-05-07T01:12:18;6.90;;;4.03;;
71513;SDS011;59335;46.652;21.272;2023-05-07T01:15:22;6.82;;;3.85;;
71513;SDS011;59335;46.652;21.272;2023-05-07T01:18:25;7.47;;;4.35;;
71513;SDS011;59335;46.652;21.272;2023-05-07T01:21:29;6.47;;;3.80;;
71513;SDS011;59335;46.652;21.272;2023-05-07T01:24:38;7.60;;;4.10;;
71513;SDS011;59335;46.652;21.272;2023-05-07T01:27:42;7.65;;;3.85;;
71513;SDS011;59335;46.652;21.272;2023-05-07T01:30:49;7.05;;;4.28;;
71513;SDS011;59335;46.652;21.272;2023-05-07T01:33:55;6.50;;;3.90;;
71513;SDS011;59335;46.652;21.272;2023-05-07T01:37:01;6.90;;;3.87;;
71513;SDS011;59335;46.652;21.272;2023-05-07T01:40:08;6.30;;;3.65;;
71513;SDS011;59335;46.652;21.272;2023-05-07T01:43:11;6.90;;;4.20;;
71513;SDS011;59335;46.652;21.272;2023-05-07T01:46:14;5.72;;;3.90;;
71513;SDS011;59335;46.652;21.272;2023-05-07T01:49:19;6.97;;;4.10;;
71513;SDS011;59335;46.652;21.272;2023-05-07T01:52:22;7.50;;;4.37;;
71513;SDS011;59335;46.652;21.272;2023-05-07T01:55:25;6.95;;;4.22;;
71513;SDS011;59335;46.652;21.272;2023-05-07T01:58:27;8.82;;;4.65;;
71513;SDS011;59335;46.652;21.272;2023-05-07T02:01:30;7.40;;;4.13;;
71513;SDS011;59335;46.652;21.272;2023-05-07T02:04:33;7.63;;;4.30;;
71513;SDS011;59335;46.652;21.272;2023-05-07T02:07:37;7.70;;;4.27;;
71513;SDS011;59335;46.652;21.272;2023-05-07T02:10:39;8.13;;;4.25;;
71513;SDS011;59335;46.652;21.272;2023-05-07T02:13:42;7.78;;;4.50;;
71513;SDS011;59335;46.652;21.272;2023-05-07T02:16:45;7.95;;;4.38;;
71513;SDS011;59335;46.652;21.272;2023-05-07T02:19:50;7.18;;;4.00;;
71513;SDS011;59335;46.652;21.272;2023-05-07T02:22:52;6.60;;;3.73;;
71513;SDS011;59335;46.652;21.272;2023-05-07T02:25:55;7.03;;;3.95;;
71513;SDS011;59335;46.652;21.272;2023-05-07T02:28:57;6.68;;;3.88;;
71513;SDS011;59335;46.652;21.272;2023-05-07T02:32:00;7.45;;;4.40;;
71513;SDS011;59335;46.652;21.272;2023-05-07T02:35:04;5.85;;;3.95;;
71513;SDS011;59335;46.652;21.272;2023-05-07T02:38:08;7.77;;;3.97;;
71513;SDS011;59335;46.652;21.272;2023-05-07T02:41:14;7.13;;;3.88;;
71513;SDS011;59335;46.652;21.272;2023-05-07T02:44:16;7.43;;;4.00;;
71513;SDS011;59335;46.652;21.272;2023-05-07T02:47:22;7.32;;;4.15;;
71513;SDS011;59335;46.652;21.272;2023-05-07T02:50:26;6.97;;;4.05;;
71513;SDS011;59335;46.652;21.272;2023-05-07T02:53:29;8.90;;;4.70;;
71513;SDS011;59335;46.652;21.272;2023-05-07T02:56:32;8.25;;;4.90;;
71513;SDS011;59335;46.652;21.272;2023-05-07T02:59:35;8.48;;;5.00;;
71513;SDS011;59335;46.652;21.272;2023-05-07T03:02:38;7.85;;;4.95;;
71513;SDS011;59335;46.652;21.272;2023-05-07T03:05:41;7.50;;;4.43;;
71513;SDS011;59335;46.652;21.272;2023-05-07T03:08:44;6.70;;;4.47;;
71513;SDS011;59335;46.652;21.272;2023-05-07T03:11:47;8.18;;;4.50;;
71513;SDS011;59335;46.652;21.272;2023-05-07T03:14:50;7.70;;;4.82;;
71513;SDS011;59335;46.652;21.272;2023-05-07T03:17:53;8.10;;;4.70;;
71513;SDS011;59335;46.652;21.272;2023-05-07T03:20:55;7.32;;;4.82;;
71513;SDS011;59335;46.652;21.272;2023-05-07T03:23:59;7.53;;;4.40;;
71513;SDS011;59335;46.652;21.272;2023-05-07T03:27:02;7.43;;;4.70;;
71513;SDS011;59335;46.652;21.272;2023-05-07T03:30:05;8.05;;;4.55;;
71513;SDS011;59335;46.652;21.272;2023-05-07T03:33:10;7.63;;;4.60;;
71513;SDS011;59335;46.652;21.272;2023-05-07T03:36:12;7.80;;;4.90;;
71513;SDS011;59335;46.652;21.272;2023-05-07T03:39:15;7.90;;;4.43;;
71513;SDS011;59335;46.652;21.272;2023-05-07T03:42:18;7.40;;;4.45;;
71513;SDS011;59335;46.652;21.272;2023-05-07T03:45:23;7.20;;;4.55;;
71513;SDS011;59335;46.652;21.272;2023-05-07T03:48:34;7.30;;;4.40;;
71513;SDS011;59335;46.652;21.272;2023-05-07T03:51:38;7.15;;;4.22;;
71513;SDS011;59335;46.652;21.272;2023-05-07T03:54:42;7.57;;;4.40;;
71513;SDS011;59335;46.652;21.272;2023-05-07T03:57:47;7.70;;;4.78;;
71513;SDS011;59335;46.652;21.272;2023-05-07T04:00:49;7.22;;;4.30;;
71513;SDS011;59335;46.652;21.272;2023-05-07T04:03:58;7.53;;;4.47;;
71513;SDS011;59335;46.652;21.272;2023-05-07T04:07:01;7.88;;;4.45;;
71513;SDS011;59335;46.652;21.272;2023-05-07T04:10:07;7.83;;;4.50;;
71513;SDS011;59335;46.652;21.272;2023-05-07T04:13:13;7.72;;;4.32;;
71513;SDS011;59335;46.652;21.272;2023-05-07T04:16:17;8.18;;;4.20;;
71513;SDS011;59335;46.652;21.272;2023-05-07T04:19:19;7.57;;;4.28;;
71513;SDS011;59335;46.652;21.272;2023-05-07T04:22:25;7.25;;;4.57;;
71513;SDS011;59335;46.652;21.272;2023-05-07T04:25:29;8.53;;;4.50;;
71513;SDS011;59335;46.652;21.272;2023-05-07T04:28:40;8.13;;;4.45;;
71513;SDS011;59335;46.652;21.272;2023-05-07T04:31:44;7.00;;;4.30;;
71513;SDS011;59335;46.652;21.272;2023-05-07T04:34:47;7.45;;;4.50;;
71513;SDS011;59335;46.652;21.272;2023-05-07T04:37:50;7.03;;;4.30;;
71513;SDS011;59335;46.652;21.272;2023-05-07T04:40:53;6.63;;;4.13;;
71513;SDS011;59335;46.652;21.272;2023-05-07T04:43:59;7.40;;;4.35;;
71513;SDS011;59335;46.652;21.272;2023-05-07T04:47:05;7.00;;;4.22;;
71513;SDS011;59335;46.652;21.272;2023-05-07T04:50:08;7.32;;;4.40;;
71513;SDS011;59335;46.652;21.272;2023-05-07T04:53:13;6.65;;;4.10;;
71513;SDS011;59335;46.652;21.272;2023-05-07T04:56:16;6.83;;;4.13;;
71513;SDS011;59335;46.652;21.272;2023-05-07T04:59:20;7.22;;;4.47;;
71513;SDS011;59335;46.652;21.272;2023-05-07T05:02:24;7.18;;;4.50;;
71513;SDS011;59335;46.652;21.272;2023-05-07T05:05:27;7.00;;;4.35;;
71513;SDS011;59335;46.652;21.272;2023-05-07T05:08:30;7.20;;;4.38;;
71513;SDS011;59335;46.652;21.272;2023-05-07T05:11:34;7.57;;;4.27;;
71513;SDS011;59335;46.652;21.272;2023-05-07T05:14:38;7.55;;;4.00;;
71513;SDS011;59335;46.652;21.272;2023-05-07T05:17:42;6.70;;;4.30;;
71513;SDS011;59335;46.652;21.272;2023-05-07T05:20:45;6.50;;;3.90;;
71513;SDS011;59335;46.652;21.272;2023-05-07T05:23:48;7.53;;;4.32;;
71513;SDS011;59335;46.652;21.272;2023-05-07T05:26:55;8.07;;;4.07;;
71513;SDS011;59335;46.652;21.272;2023-05-07T05:29:58;6.60;;;4.10;;
71513;SDS011;59335;46.652;21.272;2023-05-07T05:33:02;6.57;;;4.07;;
71513;SDS011;59335;46.652;21.272;2023-05-07T05:36:05;7.22;;;3.90;;
71513;SDS011;59335;46.652;21.272;2023-05-07T05:39:09;6.57;;;3.67;;
71513;SDS011;59335;46.652;21.272;2023-05-07T05:42:12;7.50;;;4.53;;
71513;SDS011;59335;46.652;21.272;2023-05-07T05:45:15;8.65;;;4.43;;
71513;SDS011;59335;46.652;21.272;2023-05-07T05:48:19;6.90;;;4.10;;
71513;SDS011;59335;46.652;21.272;2023-05-07T05:51:23;6.93;;;4.00;;
71513;SDS011;59335;46.652;21.272;2023-05-07T05:54:27;7.10;;;4.20;;
71513;SDS011;59335;46.652;21.272;2023-05-07T05:57:30;6.83;;;4.20;;
71513;SDS011;59335;46.652;21.272;2023-05-07T06:00:33;6.93;;;4.13;;
71513;SDS011;59335;46.652;21.272;2023-05-07T06:03:38;6.97;;;3.90;;
71513;SDS011;59335;46.652;21.272;2023-05-07T06:06:47;6.65;;;4.30;;
71513;SDS011;59335;46.652;21.272;2023-05-07T06:09:50;6.85;;;4.05;;
71513;SDS011;59335;46.652;21.272;2023-05-07T06:12:53;7.57;;;4.10;;
71513;SDS011;59335;46.652;21.272;2023-05-07T06:15:56;6.80;;;4.00;;
71513;SDS011;59335;46.652;21.272;2023-05-07T06:18:59;6.57;;;3.92;;
71513;SDS011;59335;46.652;21.272;2023-05-07T06:22:02;6.32;;;3.78;;
71513;SDS011;59335;46.652;21.272;2023-05-07T06:25:08;7.13;;;3.70;;
71513;SDS011;59335;46.652;21.272;2023-05-07T06:28:12;7.10;;;3.83;;
71513;SDS011;59335;46.652;21.272;2023-05-07T06:31:18;6.43;;;3.90;;
71513;SDS011;59335;46.652;21.272;2023-05-07T06:34:35;7.47;;;3.95;;
71513;SDS011;59335;46.652;21.272;2023-05-07T06:37:40;6.85;;;3.88;;
71513;SDS011;59335;46.652;21.272;2023-05-07T06:40:50;6.70;;;3.58;;
71513;SDS011;59335;46.652;21.272;2023-05-07T06:43:52;6.93;;;3.57;;
71513;SDS011;59335;46.652;21.272;2023-05-07T06:47:17;6.78;;;3.70;;
71513;SDS011;59335;46.652;21.272;2023-05-07T06:50:25;6.72;;;4.00;;
71513;SDS011;59335;46.652;21.272;2023-05-07T06:53:31;6.82;;;4.10;;
71513;SDS011;59335;46.652;21.272;2023-05-07T06:56:35;6.75;;;3.70;;
71513;SDS011;59335;46.652;21.272;2023-05-07T06:59:39;6.80;;;4.10;;
71513;SDS011;59335;46.652;21.272;2023-05-07T07:02:43;6.18;;;3.53;;
71513;SDS011;59335;46.652;21.272;2023-05-07T07:05:47;6.82;;;3.80;;
71513;SDS011;59335;46.652;21.272;2023-05-07T07:08:49;6.28;;;3.80;;
71513;SDS011;59335;46.652;21.272;2023-05-07T07:11:53;6.32;;;3.92;;
71513;SDS011;59335;46.652;21.272;2023-05-07T07:14:56;6.57;;;3.80;;
71513;SDS011;59335;46.652;21.272;2023-05-07T07:17:59;6.38;;;3.60;;
71513;SDS011;59335;46.652;21.272;2023-05-07T07:21:02;6.32;;;3.75;;
71513;SDS011;59335;46.652;21.272;2023-05-07T07:24:05;7.78;;;4.20;;
71513;SDS011;59335;46.652;21.272;2023-05-07T07:27:08;7.05;;;3.95;;
71513;SDS011;59335;46.652;21.272;2023-05-07T07:30:11;6.97;;;3.90;;
71513;SDS011;59335;46.652;21.272;2023-05-07T07:33:15;5.63;;;3.30;;
71513;SDS011;59335;46.652;21.272;2023-05-07T07:36:19;6.47;;;3.50;;
71513;SDS011;59335;46.652;21.272;2023-05-07T07:39:24;7.03;;;3.70;;
71513;SDS011;59335;46.652;21.272;2023-05-07T07:42:30;7.25;;;4.40;;
71513;SDS011;59335;46.652;21.272;2023-05-07T07:45:33;6.40;;;3.67;;
71513;SDS011;59335;46.652;21.272;2023-05-07T07:48:37;5.88;;;3.70;;
71513;SDS011;59335;46.652;21.272;2023-05-07T07:51:40;7.25;;;3.90;;
71513;SDS011;59335;46.652;21.272;2023-05-07T07:54:45;6.53;;;3.90;;
71513;SDS011;59335;46.652;21.272;2023-05-07T07:57:48;6.05;;;3.60;;
71513;SDS011;59335;46.652;21.272;2023-05-07T08:00:52;6.60;;;3.63;;
71513;SDS011;59335;46.652;21.272;2023-05-07T08:03:59;5.90;;;3.60;;
71513;SDS011;59335;46.652;21.272;2023-05-07T08:07:03;5.65;;;3.50;;
71513;SDS011;59335;46.652;21.272;2023-05-07T08:10:09;6.72;;;3.60;;
71513;SDS011;59335;46.652;21.272;2023-05-07T08:13:12;6.63;;;3.60;;
71513;SDS011;59335;46.652;21.272;2023-05-07T08:16:16;6.40;;;3.87;;
71513;SDS011;59335;46.652;21.272;2023-05-07T08:19:20;6.93;;;3.80;;
71513;SDS011;59335;46.652;21.272;2023-05-07T08:22:24;6.13;;;3.70;;
71513;SDS011;59335;46.652;21.272;2023-05-07T08:25:27;6.00;;;3.60;;
71513;SDS011;59335;46.652;21.272;2023-05-07T08:28:31;6.60;;;3.58;;
71513;SDS011;59335;46.652;21.272;2023-05-07T08:31:33;6.40;;;3.90;;
71513;SDS011;59335;46.652;21.272;2023-05-07T08:34:36;6.22;;;3.83;;
71513;SDS011;59335;46.652;21.272;2023-05-07T08:37:40;6.93;;;3.60;;
71513;SDS011;59335;46.652;21.272;2023-05-07T08:40:43;6.45;;;3.80;;
71513;SDS011;59335;46.652;21.272;2023-05-07T08:43:52;6.80;;;3.60;;
71513;SDS011;59335;46.652;21.272;2023-05-07T08:47:00;5.80;;;3.40;;
71513;SDS011;59335;46.652;21.272;2023-05-07T08:50:06;7.13;;;3.65;;
71513;SDS011;59335;46.652;21.272;2023-05-07T08:53:09;5.65;;;3.53;;
71513;SDS011;59335;46.652;21.272;2023-05-07T08:56:13;7.05;;;3.75;;
71513;SDS011;59335;46.652;21.272;2023-05-07T08:59:17;6.47;;;3.40;;
71513;SDS011;59335;46.652;21.272;2023-05-07T09:02:20;6.77;;;3.63;;
71513;SDS011;59335;46.652;21.272;2023-05-07T09:05:23;5.93;;;3.65;;
71513;SDS011;59335;46.652;21.272;2023-05-07T09:08:27;6.45;;;3.60;;
71513;SDS011;59335;46.652;21.272;2023-05-07T09:11:33;5.82;;;3.35;;
71513;SDS011;59335;46.652;21.272;2023-05-07T09:14:37;6.47;;;3.67;;
71513;SDS011;59335;46.652;21.272;2023-05-07T09:17:40;6.13;;;3.53;;
71513;SDS011;59335;46.652;21.272;2023-05-07T09:20:45;6.43;;;3.70;;
71513;SDS011;59335;46.652;21.272;2023-05-07T09:23:49;5.88;;;3.45;;
71513;SDS011;59335;46.652;21.272;2023-05-07T09:27:01;6.65;;;3.53;;
71513;SDS011;59335;46.652;21.272;2023-05-07T09:30:08;5.82;;;3.45;;
71513;SDS011;59335;46.652;21.272;2023-05-07T09:33:12;6.40;;;3.43;;
71513;SDS011;59335;46.652;21.272;2023-05-07T09:36:19;5.93;;;3.42;;
71513;SDS011;59335;46.652;21.272;2023-05-07T09:39:22;6.30;;;3.67;;
71513;SDS011;59335;46.652;21.272;2023-05-07T09:42:26;6.00;;;3.50;;
71513;SDS011;59335;46.652;21.272;2023-05-07T09:45:32;5.88;;;3.58;;
71513;SDS011;59335;46.652;21.272;2023-05-07T09:48:36;5.73;;;3.33;;
71513;SDS011;59335;46.652;21.272;2023-05-07T09:51:43;6.00;;;3.60;;
71513;SDS011;59335;46.652;21.272;2023-05-07T09:54:51;5.63;;;3.42;;
71513;SDS011;59335;46.652;21.272;2023-05-07T09:57:58;5.78;;;3.40;;
71513;SDS011;59335;46.652;21.272;2023-05-07T10:01:03;5.80;;;3.20;;
71513;SDS011;59335;46.652;21.272;2023-05-07T10:04:07;5.57;;;3.30;;
71513;SDS011;59335;46.652;21.272;2023-05-07T10:07:10;5.82;;;3.25;;
71513;SDS011;59335;46.652;21.272;2023-05-07T10:10:14;5.78;;;3.40;;
71513;SDS011;59335;46.652;21.272;2023-05-07T10:13:20;6.80;;;3.35;;
71513;SDS011;59335;46.652;21.272;2023-05-07T10:16:29;5.75;;;3.40;;
71513;SDS011;59335;46.652;21.272;2023-05-07T10:19:43;5.73;;;3.20;;
71513;SDS011;59335;46.652;21.272;2023-05-07T10:22:48;6.20;;;3.17;;
71513;SDS011;59335;46.652;21.272;2023-05-07T10:25:57;7.68;;;3.80;;
71513;SDS011;59335;46.652;21.272;2023-05-07T10:29:12;4.88;;;3.03;;
71513;SDS011;59335;46.652;21.272;2023-05-07T10:32:33;5.57;;;3.25;;
71513;SDS011;59335;46.652;21.272;2023-05-07T10:35:44;6.37;;;3.33;;
71513;SDS011;59335;46.652;21.272;2023-05-07T10:38:50;5.30;;;3.05;;
71513;SDS011;59335;46.652;21.272;2023-05-07T10:41:53;6.35;;;3.33;;
71513;SDS011;59335;46.652;21.272;2023-05-07T10:44:59;5.95;;;3.40;;
71513;SDS011;59335;46.652;21.272;2023-05-07T10:48:16;5.82;;;3.30;;
71513;SDS011;59335;46.652;21.272;2023-05-07T10:51:29;5.30;;;2.90;;
71513;SDS011;59335;46.652;21.272;2023-05-07T10:54:41;5.68;;;3.08;;
71513;SDS011;59335;46.652;21.272;2023-05-07T10:57:48;5.40;;;3.20;;
71513;SDS011;59335;46.652;21.272;2023-05-07T11:00:58;5.15;;;3.00;;
71513;SDS011;59335;46.652;21.272;2023-05-07T11:04:14;5.45;;;3.10;;
71513;SDS011;59335;46.652;21.272;2023-05-07T11:07:53;6.20;;;3.30;;
71513;SDS011;59335;46.652;21.272;2023-05-07T11:11:00;5.60;;;2.95;;
71513;SDS011;59335;46.652;21.272;2023-05-07T11:18:06;5.50;;;3.40;;
71513;SDS011;59335;46.652;21.272;2023-05-07T11:21:14;5.80;;;3.40;;
71513;SDS011;59335;46.652;21.272;2023-05-07T11:24:42;6.30;;;3.13;;
71513;SDS011;59335;46.652;21.272;2023-05-07T11:27:47;6.00;;;3.30;;
71513;SDS011;59335;46.652;21.272;2023-05-07T11:30:50;5.68;;;3.55;;
71513;SDS011;59335;46.652;21.272;2023-05-07T11:33:55;5.90;;;3.17;;
71513;SDS011;59335;46.652;21.272;2023-05-07T11:36:59;5.57;;;3.28;;
71513;SDS011;59335;46.652;21.272;2023-05-07T11:40:19;5.27;;;3.00;;
71513;SDS011;59335;46.652;21.272;2023-05-07T11:43:22;5.40;;;3.33;;
71513;SDS011;59335;46.652;21.272;2023-05-07T11:46:26;5.97;;;3.20;;
71513;SDS011;59335;46.652;21.272;2023-05-07T11:49:30;5.35;;;3.17;;
71513;SDS011;59335;46.652;21.272;2023-05-07T11:52:33;5.45;;;3.28;;
71513;SDS011;59335;46.652;21.272;2023-05-07T11:55:36;6.53;;;3.50;;
71513;SDS011;59335;46.652;21.272;2023-05-07T11:58:39;6.47;;;3.55;;
71513;SDS011;59335;46.652;21.272;2023-05-07T12:01:46;5.35;;;3.13;;
71513;SDS011;59335;46.652;21.272;2023-05-07T12:04:49;4.95;;;3.03;;
71513;SDS011;59335;46.652;21.272;2023-05-07T12:07:57;6.03;;;3.45;;
71513;SDS011;59335;46.652;21.272;2023-05-07T12:11:00;6.03;;;3.43;;
71513;SDS011;59335;46.652;21.272;2023-05-07T12:14:03;5.60;;;3.08;;
71513;SDS011;59335;46.652;21.272;2023-05-07T12:17:06;6.30;;;3.20;;
71513;SDS011;59335;46.652;21.272;2023-05-07T12:20:10;6.15;;;3.05;;
71513;SDS011;59335;46.652;21.272;2023-05-07T12:23:13;5.53;;;3.30;;
71513;SDS011;59335;46.652;21.272;2023-05-07T12:26:16;5.50;;;3.20;;
71513;SDS011;59335;46.652;21.272;2023-05-07T12:29:25;5.35;;;3.00;;
71513;SDS011;59335;46.652;21.272;2023-05-07T12:32:28;6.35;;;3.58;;
71513;SDS011;59335;46.652;21.272;2023-05-07T12:35:32;5.88;;;3.17;;
71513;SDS011;59335;46.652;21.272;2023-05-07T12:38:38;5.65;;;3.15;;
71513;SDS011;59335;46.652;21.272;2023-05-07T12:41:55;5.40;;;3.13;;
71513;SDS011;59335;46.652;21.272;2023-05-07T12:45:07;5.45;;;2.83;;
71513;SDS011;59335;46.652;21.272;2023-05-07T12:48:19;4.95;;;3.20;;
71513;SDS011;59335;46.652;21.272;2023-05-07T12:51:22;6.28;;;3.22;;
71513;SDS011;59335;46.652;21.272;2023-05-07T12:54:28;6.63;;;3.22;;
71513;SDS011;59335;46.652;21.272;2023-05-07T12:57:37;5.00;;;2.80;;
71513;SDS011;59335;46.652;21.272;2023-05-07T13:00:42;5.38;;;3.00;;
71513;SDS011;59335;46.652;21.272;2023-05-07T13:03:48;5.07;;;3.08;;
71513;SDS011;59335;46.652;21.272;2023-05-07T13:06:53;5.70;;;3.13;;
71513;SDS011;59335;46.652;21.272;2023-05-07T13:09:56;5.30;;;3.10;;
71513;SDS011;59335;46.652;21.272;2023-05-07T13:12:58;5.57;;;3.43;;
71513;SDS011;59335;46.652;21.272;2023-05-07T13:16:02;5.43;;;3.22;;
71513;SDS011;59335;46.652;21.272;2023-05-07T13:19:06;5.57;;;3.20;;
71513;SDS011;59335;46.652;21.272;2023-05-07T13:22:09;5.90;;;3.17;;
71513;SDS011;59335;46.652;21.272;2023-05-07T13:25:12;5.30;;;3.00;;
71513;SDS011;59335;46.652;21.272;2023-05-07T13:28:15;5.10;;;2.90;;
71513;SDS011;59335;46.652;21.272;2023-05-07T13:31:18;5.10;;;3.00;;
71513;SDS011;59335;46.652;21.272;2023-05-07T13:34:23;5.78;;;3.05;;
71513;SDS011;59335;46.652;21.272;2023-05-07T13:37:25;5.75;;;3.28;;
71513;SDS011;59335;46.652;21.272;2023-05-07T13:40:28;5.43;;;3.28;;
71513;SDS011;59335;46.652;21.272;2023-05-07T13:43:30;5.80;;;2.87;;
71513;SDS011;59335;46.652;21.272;2023-05-07T13:46:35;5.55;;;3.03;;
71513;SDS011;59335;46.652;21.272;2023-05-07T13:49:38;5.97;;;2.78;;
71513;SDS011;59335;46.652;21.272;2023-05-07T13:52:42;5.28;;;3.10;;
71513;SDS011;59335;46.652;21.272;2023-05-07T13:55:48;5.30;;;2.92;;
71513;SDS011;59335;46.652;21.272;2023-05-07T13:58:50;5.10;;;2.83;;
71513;SDS011;59335;46.652;21.272;2023-05-07T14:02:01;5.32;;;3.00;;
71513;SDS011;59335;46.652;21.272;2023-05-07T14:05:04;5.60;;;3.03;;
71513;SDS011;59335;46.652;21.272;2023-05-07T14:08:07;5.35;;;3.10;;
71513;SDS011;59335;46.652;21.272;2023-05-07T14:11:10;5.50;;;2.97;;
71513;SDS011;59335;46.652;21.272;2023-05-07T14:14:12;5.80;;;2.83;;
71513;SDS011;59335;46.652;21.272;2023-05-07T14:17:18;5.38;;;2.92;;
71513;SDS011;59335;46.652;21.272;2023-05-07T14:20:21;4.88;;;2.90;;
71513;SDS011;59335;46.652;21.272;2023-05-07T14:23:24;5.15;;;3.20;;
71513;SDS011;59335;46.652;21.272;2023-05-07T14:26:28;4.97;;;2.92;;
71513;SDS011;59335;46.652;21.272;2023-05-07T14:29:31;5.27;;;2.70;;
71513;SDS011;59335;46.652;21.272;2023-05-07T14:32:45;4.95;;;2.92;;
71513;SDS011;59335;46.652;21.272;2023-05-07T14:35:47;4.53;;;2.80;;
71513;SDS011;59335;46.652;21.272;2023-05-07T14:38:52;5.43;;;3.17;;
71513;SDS011;59335;46.652;21.272;2023-05-07T14:41:57;5.00;;;3.03;;
71513;SDS011;59335;46.652;21.272;2023-05-07T14:44:59;5.00;;;2.87;;
71513;SDS011;59335;46.652;21.272;2023-05-07T14:48:02;5.00;;;2.83;;
71513;SDS011;59335;46.652;21.272;2023-05-07T14:51:05;5.18;;;3.05;;
71513;SDS011;59335;46.652;21.272;2023-05-07T14:54:08;5.30;;;2.92;;
71513;SDS011;59335;46.652;21.272;2023-05-07T14:57:13;5.55;;;3.20;;
71513;SDS011;59335;46.652;21.272;2023-05-07T15:00:18;5.07;;;3.07;;
71513;SDS011;59335;46.652;21.272;2023-05-07T15:03:21;5.40;;;3.17;;
71513;SDS011;59335;46.652;21.272;2023-05-07T15:06:24;4.93;;;2.80;;
71513;SDS011;59335;46.652;21.272;2023-05-07T15:09:28;5.13;;;3.20;;
71513;SDS011;59335;46.652;21.272;2023-05-07T15:12:32;5.78;;;3.00;;
71513;SDS011;59335;46.652;21.272;2023-05-07T15:15:34;5.80;;;3.00;;
71513;SDS011;59335;46.652;21.272;2023-05-07T15:18:37;5.20;;;2.75;;
71513;SDS011;59335;46.652;21.272;2023-05-07T15:21:40;5.85;;;2.92;;
71513;SDS011;59335;46.652;21.272;2023-05-07T15:24:43;5.10;;;2.83;;
71513;SDS011;59335;46.652;21.272;2023-05-07T15:27:46;4.68;;;2.60;;
71513;SDS011;59335;46.652;21.272;2023-05-07T15:30:48;5.27;;;2.93;;
71513;SDS011;59335;46.652;21.272;2023-05-07T15:33:51;5.90;;;3.35;;
71513;SDS011;59335;46.652;21.272;2023-05-07T15:36:54;4.90;;;2.80;;
71513;SDS011;59335;46.652;21.272;2023-05-07T15:39:59;4.80;;;2.75;;
71513;SDS011;59335;46.652;21.272;2023-05-07T15:43:04;5.07;;;2.90;;
71513;SDS011;59335;46.652;21.272;2023-05-07T15:46:07;5.17;;;2.83;;
71513;SDS011;59335;46.652;21.272;2023-05-07T15:49:09;4.72;;;2.72;;
71513;SDS011;59335;46.652;21.272;2023-05-07T15:52:12;4.85;;;2.80;;
71513;SDS011;59335;46.652;21.272;2023-05-07T15:55:18;5.65;;;3.03;;
71513;SDS011;59335;46.652;21.272;2023-05-07T15:58:21;5.25;;;3.03;;
71513;SDS011;59335;46.652;21.272;2023-05-07T16:01:24;4.90;;;2.73;;
71513;SDS011;59335;46.652;21.272;2023-05-07T16:04:27;5.55;;;2.90;;
71513;SDS011;59335;46.652;21.272;2023-05-07T16:07:29;4.63;;;2.80;;
71513;SDS011;59335;46.652;21.272;2023-05-07T16:10:32;5.40;;;2.95;;
71513;SDS011;59335;46.652;21.272;2023-05-07T16:13:35;5.43;;;2.70;;
71513;SDS011;59335;46.652;21.272;2023-05-07T16:16:40;5.10;;;2.80;;
71513;SDS011;59335;46.652;21.272;2023-05-07T16:19:43;4.72;;;2.40;;
71513;SDS011;59335;46.652;21.272;2023-05-07T16:22:46;5.63;;;3.10;;
71513;SDS011;59335;46.652;21.272;2023-05-07T16:25:48;5.28;;;2.80;;
71513;SDS011;59335;46.652;21.272;2023-05-07T16:28:51;5.30;;;2.92;;
71513;SDS011;59335;46.652;21.272;2023-05-07T16:31:56;4.67;;;2.80;;
71513;SDS011;59335;46.652;21.272;2023-05-07T16:34:58;5.20;;;2.88;;
71513;SDS011;59335;46.652;21.272;2023-05-07T16:38:01;5.10;;;2.70;;
71513;SDS011;59335;46.652;21.272;2023-05-07T16:41:11;5.10;;;2.60;;
71513;SDS011;59335;46.652;21.272;2023-05-07T16:44:14;5.50;;;3.10;;
71513;SDS011;59335;46.652;21.272;2023-05-07T16:47:17;4.63;;;2.70;;
71513;SDS011;59335;46.652;21.272;2023-05-07T16:50:20;4.75;;;2.63;;
71513;SDS011;59335;46.652;21.272;2023-05-07T16:53:23;5.13;;;2.60;;
71513;SDS011;59335;46.652;21.272;2023-05-07T16:56:26;5.15;;;2.78;;
71513;SDS011;59335;46.652;21.272;2023-05-07T16:59:29;4.85;;;2.80;;
71513;SDS011;59335;46.652;21.272;2023-05-07T17:02:34;5.00;;;2.80;;
71513;SDS011;59335;46.652;21.272;2023-05-07T17:05:37;5.20;;;2.78;;
71513;SDS011;59335;46.652;21.272;2023-05-07T17:08:40;4.50;;;2.70;;
71513;SDS011;59335;46.652;21.272;2023-05-07T17:11:44;5.60;;;3.20;;
71513;SDS011;59335;46.652;21.272;2023-05-07T17:14:47;5.05;;;2.70;;
71513;SDS011;59335;46.652;21.272;2023-05-07T17:17:50;5.30;;;2.80;;
71513;SDS011;59335;46.652;21.272;2023-05-07T17:20:53;4.95;;;2.72;;
71513;SDS011;59335;46.652;21.272;2023-05-07T17:23:56;5.65;;;2.88;;
71513;SDS011;59335;46.652;21.272;2023-05-07T17:26:58;5.22;;;2.97;;
71513;SDS011;59335;46.652;21.272;2023-05-07T17:30:01;4.55;;;2.63;;
71513;SDS011;59335;46.652;21.272;2023-05-07T17:33:05;5.00;;;2.90;;
71513;SDS011;59335;46.652;21.272;2023-05-07T17:36:22;5.15;;;2.70;;
71513;SDS011;59335;46.652;21.272;2023-05-07T17:39:25;5.20;;;3.00;;
71513;SDS011;59335;46.652;21.272;2023-05-07T17:42:28;5.25;;;2.72;;
71513;SDS011;59335;46.652;21.272;2023-05-07T17:45:32;4.95;;;2.90;;
71513;SDS011;59335;46.652;21.272;2023-05-07T17:48:35;4.67;;;2.50;;
71513;SDS011;59335;46.652;21.272;2023-05-07T17:51:38;3.90;;;2.38;;
71513;SDS011;59335;46.652;21.272;2023-05-07T17:54:55;5.18;;;3.05;;
71513;SDS011;59335;46.652;21.272;2023-05-07T17:57:58;5.93;;;2.80;;
71513;SDS011;59335;46.652;21.272;2023-05-07T18:01:01;4.65;;;2.55;;
71513;SDS011;59335;46.652;21.272;2023-05-07T18:04:04;4.53;;;2.50;;
71513;SDS011;59335;46.652;21.272;2023-05-07T18:07:07;5.40;;;2.60;;
71513;SDS011;59335;46.652;21.272;2023-05-07T18:10:09;4.85;;;2.70;;
71513;SDS011;59335;46.652;21.272;2023-05-07T18:13:12;4.90;;;2.92;;
71513;SDS011;59335;46.652;21.272;2023-05-07T18:16:15;5.82;;;2.67;;
71513;SDS011;59335;46.652;21.272;2023-05-07T18:19:20;5.30;;;2.80;;